LFBU/ANG METAR and TAF weather

Enter ICAO airport designator
Station Type Date Time Source
LFBU METAR 2021/07/28 20:00 UTC NOAA

LFBU 282000Z AUTO 28006KT CAVOK 18/12 Q1018 NOSIG


Station Type Date Time Source
LFBU Decoded METAR 2021/07/28 20:00 UTC NOAA

Station name not available
Jul 28, 2021 - 04:00 PM EDT / 2021.07.28 2000 UTC
Wind: from the W (280 degrees) at 7 MPH (6 KT):0
Visibility: greater than 7 mile(s):0
Temperature: 64 F (18 C)
Dew Point: 53 F (12 C)
Relative Humidity: 67%
Pressure (altimeter): 30.06 in. Hg (1018 hPa)
ob: LFBU 282000Z AUTO 28006KT CAVOK 18/12 Q1018 NOSIG
cycle: 20

Station Type Date Time Source
LFBU TAF 2021/07/28 18:00 UTC NOAA

TAF LFBU 281700Z 2818/2918 26008KT 9999 BKN035
BECMG 2820/2822 VRB03KT PROB40
TEMPO 2904/2906 0400 FG VV///
BECMG 2908/2910 25005KT

Example: see airport list